sensor_id;sensor_type;location;lat;lon;timestamp;P1;durP1;ratioP1;P2;durP2;ratioP2
41799;SDS011;27468;47.460;19.034;2024-03-23T00:55:19;16.83;;;12.80;;
41799;SDS011;27468;47.460;19.034;2024-03-23T00:57:44;18.47;;;13.10;;
41799;SDS011;27468;47.460;19.034;2024-03-23T01:00:10;18.60;;;13.20;;
41799;SDS011;27468;47.460;19.034;2024-03-23T01:02:35;17.95;;;13.20;;
41799;SDS011;27468;47.460;19.034;2024-03-23T01:05:01;19.63;;;13.60;;
41799;SDS011;27468;47.460;19.034;2024-03-23T01:07:26;19.03;;;13.47;;
41799;SDS011;27468;47.460;19.034;2024-03-23T01:09:52;19.57;;;13.60;;
41799;SDS011;27468;47.460;19.034;2024-03-23T01:12:18;19.60;;;13.55;;
41799;SDS011;27468;47.460;19.034;2024-03-23T01:14:43;18.70;;;12.70;;
41799;SDS011;27468;47.460;19.034;2024-03-23T01:17:09;19.17;;;13.60;;
41799;SDS011;27468;47.460;19.034;2024-03-23T01:19:34;19.90;;;13.47;;
41799;SDS011;27468;47.460;19.034;2024-03-23T01:22:00;20.00;;;13.67;;
41799;SDS011;27468;47.460;19.034;2024-03-23T01:24:25;18.97;;;14.00;;
41799;SDS011;27468;47.460;19.034;2024-03-23T01:26:50;19.27;;;14.00;;
41799;SDS011;27468;47.460;19.034;2024-03-23T01:29:15;18.60;;;13.43;;
41799;SDS011;27468;47.460;19.034;2024-03-23T01:31:41;19.67;;;13.30;;
41799;SDS011;27468;47.460;19.034;2024-03-23T01:34:06;19.27;;;13.80;;
41799;SDS011;27468;47.460;19.034;2024-03-23T01:36:31;19.17;;;13.55;;
41799;SDS011;27468;47.460;19.034;2024-03-23T01:38:57;17.77;;;13.50;;
41799;SDS011;27468;47.460;19.034;2024-03-23T01:41:24;19.37;;;13.73;;
41799;SDS011;27468;47.460;19.034;2024-03-23T01:43:49;18.70;;;13.68;;
41799;SDS011;27468;47.460;19.034;2024-03-23T01:46:14;18.27;;;13.33;;
41799;SDS011;27468;47.460;19.034;2024-03-23T01:48:40;19.73;;;14.27;;
41799;SDS011;27468;47.460;19.034;2024-03-23T01:51:05;20.40;;;14.27;;
41799;SDS011;27468;47.460;19.034;2024-03-23T01:53:31;20.50;;;14.17;;
41799;SDS011;27468;47.460;19.034;2024-03-23T01:55:56;19.77;;;14.20;;
41799;SDS011;27468;47.460;19.034;2024-03-23T01:58:22;20.50;;;14.15;;
41799;SDS011;27468;47.460;19.034;2024-03-23T02:00:47;21.55;;;14.40;;
41799;SDS011;27468;47.460;19.034;2024-03-23T02:03:22;19.60;;;13.67;;
41799;SDS011;27468;47.460;19.034;2024-03-23T02:05:49;19.90;;;14.07;;
41799;SDS011;27468;47.460;19.034;2024-03-23T02:08:14;20.73;;;14.35;;
41799;SDS011;27468;47.460;19.034;2024-03-23T02:10:40;19.95;;;14.23;;
41799;SDS011;27468;47.460;19.034;2024-03-23T02:13:05;20.37;;;14.23;;
41799;SDS011;27468;47.460;19.034;2024-03-23T02:15:30;20.17;;;14.13;;
41799;SDS011;27468;47.460;19.034;2024-03-23T02:17:56;21.40;;;14.68;;
41799;SDS011;27468;47.460;19.034;2024-03-23T02:20:21;21.88;;;14.73;;
41799;SDS011;27468;47.460;19.034;2024-03-23T02:22:50;20.67;;;14.45;;
41799;SDS011;27468;47.460;19.034;2024-03-23T02:25:16;22.50;;;14.70;;
41799;SDS011;27468;47.460;19.034;2024-03-23T02:27:42;20.43;;;14.23;;
41799;SDS011;27468;47.460;19.034;2024-03-23T02:30:07;19.87;;;14.47;;
41799;SDS011;27468;47.460;19.034;2024-03-23T02:32:33;21.80;;;14.73;;
41799;SDS011;27468;47.460;19.034;2024-03-23T02:34:58;22.02;;;14.93;;
41799;SDS011;27468;47.460;19.034;2024-03-23T02:37:23;23.07;;;15.30;;
41799;SDS011;27468;47.460;19.034;2024-03-23T02:39:49;22.73;;;14.97;;
41799;SDS011;27468;47.460;19.034;2024-03-23T02:42:14;22.57;;;15.37;;
41799;SDS011;27468;47.460;19.034;2024-03-23T02:44:41;23.65;;;16.10;;
41799;SDS011;27468;47.460;19.034;2024-03-23T02:47:07;22.47;;;15.80;;
41799;SDS011;27468;47.460;19.034;2024-03-23T02:49:32;23.98;;;15.68;;
41799;SDS011;27468;47.460;19.034;2024-03-23T02:51:58;21.63;;;15.23;;
41799;SDS011;27468;47.460;19.034;2024-03-23T02:54:23;23.10;;;16.05;;
41799;SDS011;27468;47.460;19.034;2024-03-23T02:56:48;23.27;;;16.20;;
41799;SDS011;27468;47.460;19.034;2024-03-23T02:59:14;24.07;;;16.53;;
41799;SDS011;27468;47.460;19.034;2024-03-23T03:01:39;24.37;;;16.77;;
41799;SDS011;27468;47.460;19.034;2024-03-23T03:04:04;25.30;;;16.70;;
41799;SDS011;27468;47.460;19.034;2024-03-23T03:06:30;25.05;;;17.80;;
41799;SDS011;27468;47.460;19.034;2024-03-23T03:08:55;23.67;;;17.20;;
41799;SDS011;27468;47.460;19.034;2024-03-23T03:11:21;24.70;;;17.10;;
41799;SDS011;27468;47.460;19.034;2024-03-23T03:13:46;25.73;;;16.77;;
41799;SDS011;27468;47.460;19.034;2024-03-23T03:16:11;24.13;;;16.90;;
41799;SDS011;27468;47.460;19.034;2024-03-23T03:18:37;25.05;;;17.08;;
41799;SDS011;27468;47.460;19.034;2024-03-23T03:21:03;26.38;;;17.20;;
41799;SDS011;27468;47.460;19.034;2024-03-23T03:23:30;25.45;;;16.90;;
41799;SDS011;27468;47.460;19.034;2024-03-23T03:25:56;25.10;;;17.27;;
41799;SDS011;27468;47.460;19.034;2024-03-23T03:28:22;24.67;;;17.03;;
41799;SDS011;27468;47.460;19.034;2024-03-23T03:30:47;25.27;;;16.77;;
41799;SDS011;27468;47.460;19.034;2024-03-23T03:33:12;24.60;;;16.77;;
41799;SDS011;27468;47.460;19.034;2024-03-23T03:35:38;26.83;;;17.57;;
41799;SDS011;27468;47.460;19.034;2024-03-23T03:38:04;25.30;;;17.40;;
41799;SDS011;27468;47.460;19.034;2024-03-23T03:40:29;26.70;;;17.88;;
41799;SDS011;27468;47.460;19.034;2024-03-23T03:42:55;23.83;;;17.02;;
41799;SDS011;27468;47.460;19.034;2024-03-23T03:45:20;25.38;;;16.90;;
41799;SDS011;27468;47.460;19.034;2024-03-23T03:47:46;25.60;;;17.23;;
41799;SDS011;27468;47.460;19.034;2024-03-23T03:50:11;25.20;;;17.13;;
41799;SDS011;27468;47.460;19.034;2024-03-23T03:52:36;25.97;;;17.10;;
41799;SDS011;27468;47.460;19.034;2024-03-23T03:55:02;25.70;;;16.73;;
41799;SDS011;27468;47.460;19.034;2024-03-23T03:57:28;26.52;;;17.02;;
41799;SDS011;27468;47.460;19.034;2024-03-23T03:59:54;22.42;;;16.40;;
41799;SDS011;27468;47.460;19.034;2024-03-23T04:02:19;24.53;;;16.40;;
41799;SDS011;27468;47.460;19.034;2024-03-23T04:04:44;25.63;;;16.90;;
41799;SDS011;27468;47.460;19.034;2024-03-23T04:07:10;24.70;;;17.10;;
41799;SDS011;27468;47.460;19.034;2024-03-23T04:09:35;25.67;;;17.00;;
41799;SDS011;27468;47.460;19.034;2024-03-23T04:12:00;23.73;;;16.77;;
41799;SDS011;27468;47.460;19.034;2024-03-23T04:14:26;23.50;;;16.67;;
41799;SDS011;27468;47.460;19.034;2024-03-23T04:16:51;25.23;;;17.27;;
41799;SDS011;27468;47.460;19.034;2024-03-23T04:19:16;25.27;;;17.73;;
41799;SDS011;27468;47.460;19.034;2024-03-23T04:21:42;25.73;;;17.17;;
41799;SDS011;27468;47.460;19.034;2024-03-23T04:24:07;26.10;;;17.83;;
41799;SDS011;27468;47.460;19.034;2024-03-23T04:26:42;26.93;;;18.17;;
41799;SDS011;27468;47.460;19.034;2024-03-23T04:29:08;26.38;;;18.13;;
41799;SDS011;27468;47.460;19.034;2024-03-23T04:31:33;25.98;;;17.67;;
41799;SDS011;27468;47.460;19.034;2024-03-23T04:33:59;26.77;;;18.77;;
41799;SDS011;27468;47.460;19.034;2024-03-23T04:36:28;27.67;;;19.00;;
41799;SDS011;27468;47.460;19.034;2024-03-23T04:38:53;26.50;;;17.67;;
41799;SDS011;27468;47.460;19.034;2024-03-23T04:41:19;28.80;;;19.60;;
41799;SDS011;27468;47.460;19.034;2024-03-23T04:43:44;29.50;;;19.73;;
41799;SDS011;27468;47.460;19.034;2024-03-23T04:46:10;32.20;;;20.57;;
41799;SDS011;27468;47.460;19.034;2024-03-23T04:48:35;30.47;;;20.03;;
41799;SDS011;27468;47.460;19.034;2024-03-23T04:51:01;28.75;;;19.98;;
41799;SDS011;27468;47.460;19.034;2024-03-23T04:53:26;28.97;;;19.30;;
41799;SDS011;27468;47.460;19.034;2024-03-23T04:55:58;29.83;;;19.65;;
41799;SDS011;27468;47.460;19.034;2024-03-23T04:58:24;30.05;;;19.92;;
41799;SDS011;27468;47.460;19.034;2024-03-23T05:00:53;29.03;;;19.97;;
41799;SDS011;27468;47.460;19.034;2024-03-23T05:03:19;30.10;;;20.00;;
41799;SDS011;27468;47.460;19.034;2024-03-23T05:05:46;28.55;;;19.85;;
41799;SDS011;27468;47.460;19.034;2024-03-23T05:08:11;28.98;;;19.77;;
41799;SDS011;27468;47.460;19.034;2024-03-23T05:10:37;28.73;;;19.93;;
41799;SDS011;27468;47.460;19.034;2024-03-23T05:13:03;27.92;;;19.40;;
41799;SDS011;27468;47.460;19.034;2024-03-23T05:15:28;28.52;;;18.85;;
41799;SDS011;27468;47.460;19.034;2024-03-23T05:17:54;29.13;;;19.00;;
41799;SDS011;27468;47.460;19.034;2024-03-23T05:20:20;25.90;;;18.20;;
41799;SDS011;27468;47.460;19.034;2024-03-23T05:22:46;27.45;;;19.30;;
41799;SDS011;27468;47.460;19.034;2024-03-23T05:25:11;24.43;;;18.23;;
41799;SDS011;27468;47.460;19.034;2024-03-23T05:27:37;26.87;;;18.70;;
41799;SDS011;27468;47.460;19.034;2024-03-23T05:30:02;27.23;;;18.73;;
41799;SDS011;27468;47.460;19.034;2024-03-23T05:32:28;27.23;;;19.60;;
41799;SDS011;27468;47.460;19.034;2024-03-23T05:34:54;28.17;;;19.90;;
41799;SDS011;27468;47.460;19.034;2024-03-23T05:37:23;30.67;;;20.50;;
41799;SDS011;27468;47.460;19.034;2024-03-23T05:39:48;30.98;;;21.27;;
41799;SDS011;27468;47.460;19.034;2024-03-23T05:42:15;30.20;;;20.92;;
41799;SDS011;27468;47.460;19.034;2024-03-23T05:44:42;29.08;;;21.20;;
41799;SDS011;27468;47.460;19.034;2024-03-23T05:47:11;29.40;;;21.55;;
41799;SDS011;27468;47.460;19.034;2024-03-23T05:49:41;31.67;;;21.27;;
41799;SDS011;27468;47.460;19.034;2024-03-23T05:52:10;31.20;;;21.98;;
41799;SDS011;27468;47.460;19.034;2024-03-23T05:54:35;31.92;;;23.40;;
41799;SDS011;27468;47.460;19.034;2024-03-23T05:57:01;31.77;;;22.27;;
41799;SDS011;27468;47.460;19.034;2024-03-23T05:59:29;32.40;;;22.80;;
41799;SDS011;27468;47.460;19.034;2024-03-23T06:01:54;31.10;;;21.52;;
41799;SDS011;27468;47.460;19.034;2024-03-23T06:04:19;31.92;;;22.33;;
41799;SDS011;27468;47.460;19.034;2024-03-23T06:06:46;30.35;;;21.60;;
41799;SDS011;27468;47.460;19.034;2024-03-23T06:09:11;29.40;;;21.90;;
41799;SDS011;27468;47.460;19.034;2024-03-23T06:11:36;32.85;;;22.77;;
41799;SDS011;27468;47.460;19.034;2024-03-23T06:14:02;30.33;;;22.03;;
41799;SDS011;27468;47.460;19.034;2024-03-23T06:16:27;32.53;;;22.63;;
41799;SDS011;27468;47.460;19.034;2024-03-23T06:18:53;32.63;;;23.50;;
41799;SDS011;27468;47.460;19.034;2024-03-23T06:21:20;33.88;;;24.35;;
41799;SDS011;27468;47.460;19.034;2024-03-23T06:23:45;36.37;;;26.57;;
41799;SDS011;27468;47.460;19.034;2024-03-23T06:26:19;37.03;;;27.43;;
41799;SDS011;27468;47.460;19.034;2024-03-23T06:28:48;36.63;;;27.03;;
41799;SDS011;27468;47.460;19.034;2024-03-23T06:31:14;37.55;;;28.27;;
41799;SDS011;27468;47.460;19.034;2024-03-23T06:33:39;40.00;;;29.70;;
41799;SDS011;27468;47.460;19.034;2024-03-23T06:36:07;36.70;;;28.02;;
41799;SDS011;27468;47.460;19.034;2024-03-23T06:38:34;38.67;;;28.02;;
41799;SDS011;27468;47.460;19.034;2024-03-23T06:41:02;35.80;;;26.77;;
41799;SDS011;27468;47.460;19.034;2024-03-23T06:43:28;36.95;;;26.92;;
41799;SDS011;27468;47.460;19.034;2024-03-23T06:45:53;36.27;;;27.03;;
41799;SDS011;27468;47.460;19.034;2024-03-23T06:48:19;35.80;;;26.60;;
41799;SDS011;27468;47.460;19.034;2024-03-23T06:50:45;36.20;;;26.55;;
41799;SDS011;27468;47.460;19.034;2024-03-23T06:53:12;35.22;;;27.08;;
41799;SDS011;27468;47.460;19.034;2024-03-23T06:55:38;36.97;;;26.90;;
41799;SDS011;27468;47.460;19.034;2024-03-23T06:58:03;35.37;;;26.53;;
41799;SDS011;27468;47.460;19.034;2024-03-23T07:00:29;36.40;;;26.75;;
41799;SDS011;27468;47.460;19.034;2024-03-23T07:02:54;36.33;;;27.45;;
41799;SDS011;27468;47.460;19.034;2024-03-23T07:05:19;34.93;;;26.37;;
41799;SDS011;27468;47.460;19.034;2024-03-23T07:07:45;35.27;;;26.90;;
41799;SDS011;27468;47.460;19.034;2024-03-23T07:10:10;37.03;;;27.30;;
41799;SDS011;27468;47.460;19.034;2024-03-23T07:12:35;38.27;;;27.70;;
41799;SDS011;27468;47.460;19.034;2024-03-23T07:15:01;34.20;;;26.63;;
41799;SDS011;27468;47.460;19.034;2024-03-23T07:17:26;34.57;;;25.97;;
41799;SDS011;27468;47.460;19.034;2024-03-23T07:19:51;33.43;;;26.03;;
41799;SDS011;27468;47.460;19.034;2024-03-23T07:22:17;33.95;;;26.25;;
41799;SDS011;27468;47.460;19.034;2024-03-23T07:24:43;32.47;;;25.53;;
41799;SDS011;27468;47.460;19.034;2024-03-23T07:27:09;35.05;;;27.48;;
41799;SDS011;27468;47.460;19.034;2024-03-23T07:29:35;33.58;;;26.58;;
41799;SDS011;27468;47.460;19.034;2024-03-23T07:32:01;33.00;;;25.35;;
41799;SDS011;27468;47.460;19.034;2024-03-23T07:34:26;31.70;;;25.47;;
41799;SDS011;27468;47.460;19.034;2024-03-23T07:36:51;32.30;;;24.50;;
41799;SDS011;27468;47.460;19.034;2024-03-23T07:39:17;30.67;;;24.40;;
41799;SDS011;27468;47.460;19.034;2024-03-23T07:41:45;32.00;;;25.07;;
41799;SDS011;27468;47.460;19.034;2024-03-23T07:44:11;31.52;;;24.85;;
41799;SDS011;27468;47.460;19.034;2024-03-23T07:46:36;29.40;;;24.40;;
41799;SDS011;27468;47.460;19.034;2024-03-23T07:49:01;28.23;;;22.83;;
41799;SDS011;27468;47.460;19.034;2024-03-23T07:51:30;25.85;;;21.48;;
41799;SDS011;27468;47.460;19.034;2024-03-23T07:53:55;25.73;;;21.20;;
41799;SDS011;27468;47.460;19.034;2024-03-23T07:56:21;27.07;;;22.97;;
41799;SDS011;27468;47.460;19.034;2024-03-23T07:58:48;25.90;;;22.33;;
41799;SDS011;27468;47.460;19.034;2024-03-23T08:01:14;26.20;;;20.73;;
41799;SDS011;27468;47.460;19.034;2024-03-23T08:03:44;22.70;;;19.17;;
41799;SDS011;27468;47.460;19.034;2024-03-23T08:06:15;22.15;;;18.63;;
41799;SDS011;27468;47.460;19.034;2024-03-23T08:08:42;21.13;;;18.35;;
41799;SDS011;27468;47.460;19.034;2024-03-23T08:11:09;22.73;;;19.17;;
41799;SDS011;27468;47.460;19.034;2024-03-23T08:13:35;22.30;;;19.40;;
41799;SDS011;27468;47.460;19.034;2024-03-23T08:16:02;22.30;;;19.08;;
41799;SDS011;27468;47.460;19.034;2024-03-23T08:18:29;22.58;;;19.33;;
41799;SDS011;27468;47.460;19.034;2024-03-23T08:20:58;22.43;;;19.47;;
41799;SDS011;27468;47.460;19.034;2024-03-23T08:23:25;24.50;;;20.23;;
41799;SDS011;27468;47.460;19.034;2024-03-23T08:25:51;24.77;;;20.13;;
41799;SDS011;27468;47.460;19.034;2024-03-23T08:28:17;23.30;;;19.67;;
41799;SDS011;27468;47.460;19.034;2024-03-23T08:30:42;22.30;;;19.70;;
41799;SDS011;27468;47.460;19.034;2024-03-23T08:33:08;23.52;;;20.08;;
41799;SDS011;27468;47.460;19.034;2024-03-23T08:35:33;22.92;;;19.63;;
41799;SDS011;27468;47.460;19.034;2024-03-23T08:37:59;23.13;;;19.95;;
41799;SDS011;27468;47.460;19.034;2024-03-23T08:40:25;22.17;;;19.77;;
41799;SDS011;27468;47.460;19.034;2024-03-23T08:42:50;24.23;;;20.70;;
41799;SDS011;27468;47.460;19.034;2024-03-23T08:45:15;25.17;;;20.83;;
41799;SDS011;27468;47.460;19.034;2024-03-23T08:47:41;23.10;;;19.58;;
41799;SDS011;27468;47.460;19.034;2024-03-23T08:50:06;22.33;;;19.50;;
41799;SDS011;27468;47.460;19.034;2024-03-23T08:52:32;23.13;;;19.52;;
41799;SDS011;27468;47.460;19.034;2024-03-23T08:54:58;22.77;;;19.08;;
41799;SDS011;27468;47.460;19.034;2024-03-23T08:57:23;21.93;;;19.67;;
41799;SDS011;27468;47.460;19.034;2024-03-23T08:59:49;21.30;;;18.47;;
41799;SDS011;27468;47.460;19.034;2024-03-23T09:02:14;21.48;;;18.10;;
41799;SDS011;27468;47.460;19.034;2024-03-23T09:04:40;22.90;;;17.87;;
41799;SDS011;27468;47.460;19.034;2024-03-23T09:07:05;21.23;;;17.87;;
41799;SDS011;27468;47.460;19.034;2024-03-23T09:09:30;20.80;;;17.17;;
41799;SDS011;27468;47.460;19.034;2024-03-23T09:11:56;19.50;;;17.10;;
41799;SDS011;27468;47.460;19.034;2024-03-23T09:14:21;19.63;;;17.03;;
41799;SDS011;27468;47.460;19.034;2024-03-23T09:16:49;18.70;;;16.23;;
41799;SDS011;27468;47.460;19.034;2024-03-23T09:19:16;17.17;;;15.05;;
41799;SDS011;27468;47.460;19.034;2024-03-23T09:21:42;16.67;;;13.93;;
41799;SDS011;27468;47.460;19.034;2024-03-23T09:24:08;14.17;;;12.67;;
41799;SDS011;27468;47.460;19.034;2024-03-23T09:26:33;14.10;;;12.57;;
41799;SDS011;27468;47.460;19.034;2024-03-23T09:28:59;14.63;;;12.47;;
41799;SDS011;27468;47.460;19.034;2024-03-23T09:31:24;14.50;;;11.73;;
41799;SDS011;27468;47.460;19.034;2024-03-23T09:33:49;12.77;;;11.47;;
41799;SDS011;27468;47.460;19.034;2024-03-23T09:36:15;13.70;;;11.05;;
41799;SDS011;27468;47.460;19.034;2024-03-23T09:38:40;12.30;;;10.13;;
41799;SDS011;27468;47.460;19.034;2024-03-23T09:41:07;11.45;;;10.30;;
41799;SDS011;27468;47.460;19.034;2024-03-23T09:43:33;12.38;;;9.85;;
41799;SDS011;27468;47.460;19.034;2024-03-23T09:45:59;10.60;;;9.30;;
41799;SDS011;27468;47.460;19.034;2024-03-23T09:48:24;10.00;;;9.00;;
41799;SDS011;27468;47.460;19.034;2024-03-23T09:50:50;10.33;;;9.33;;
41799;SDS011;27468;47.460;19.034;2024-03-23T09:53:15;11.20;;;9.37;;
41799;SDS011;27468;47.460;19.034;2024-03-23T09:55:41;10.38;;;9.15;;
41799;SDS011;27468;47.460;19.034;2024-03-23T09:58:08;9.77;;;8.63;;
41799;SDS011;27468;47.460;19.034;2024-03-23T10:00:37;9.35;;;7.97;;
41799;SDS011;27468;47.460;19.034;2024-03-23T10:03:02;10.32;;;8.35;;
41799;SDS011;27468;47.460;19.034;2024-03-23T10:05:28;9.33;;;7.87;;
41799;SDS011;27468;47.460;19.034;2024-03-23T10:07:54;9.43;;;7.38;;
41799;SDS011;27468;47.460;19.034;2024-03-23T10:10:20;9.77;;;7.77;;
41799;SDS011;27468;47.460;19.034;2024-03-23T10:12:47;8.88;;;7.55;;
41799;SDS011;27468;47.460;19.034;2024-03-23T10:15:22;12.38;;;9.20;;
41799;SDS011;27468;47.460;19.034;2024-03-23T10:17:49;11.68;;;9.00;;
41799;SDS011;27468;47.460;19.034;2024-03-23T10:20:21;11.02;;;8.45;;
41799;SDS011;27468;47.460;19.034;2024-03-23T10:22:48;10.60;;;7.88;;
41799;SDS011;27468;47.460;19.034;2024-03-23T10:25:14;10.47;;;8.20;;
41799;SDS011;27468;47.460;19.034;2024-03-23T10:27:40;9.25;;;7.85;;
41799;SDS011;27468;47.460;19.034;2024-03-23T10:30:09;10.30;;;7.97;;
41799;SDS011;27468;47.460;19.034;2024-03-23T10:32:35;8.20;;;7.35;;
41799;SDS011;27468;47.460;19.034;2024-03-23T10:37:44;9.23;;;6.93;;
41799;SDS011;27468;47.460;19.034;2024-03-23T10:40:11;7.40;;;6.40;;
41799;SDS011;27468;47.460;19.034;2024-03-23T10:42:37;8.40;;;6.15;;
41799;SDS011;27468;47.460;19.034;2024-03-23T10:45:07;7.90;;;6.53;;
41799;SDS011;27468;47.460;19.034;2024-03-23T10:47:34;8.63;;;6.82;;
41799;SDS011;27468;47.460;19.034;2024-03-23T10:50:00;7.83;;;6.47;;
41799;SDS011;27468;47.460;19.034;2024-03-23T10:52:26;8.17;;;6.60;;
41799;SDS011;27468;47.460;19.034;2024-03-23T10:54:52;7.40;;;6.28;;
41799;SDS011;27468;47.460;19.034;2024-03-23T10:57:18;7.80;;;6.30;;
41799;SDS011;27468;47.460;19.034;2024-03-23T10:59:46;7.20;;;5.90;;
41799;SDS011;27468;47.460;19.034;2024-03-23T11:02:21;7.18;;;6.28;;
41799;SDS011;27468;47.460;19.034;2024-03-23T11:04:47;11.40;;;6.25;;
41799;SDS011;27468;47.460;19.034;2024-03-23T11:09:50;6.70;;;5.90;;
41799;SDS011;27468;47.460;19.034;2024-03-23T11:14:48;7.37;;;5.53;;
41799;SDS011;27468;47.460;19.034;2024-03-23T11:17:29;5.93;;;4.83;;
41799;SDS011;27468;47.460;19.034;2024-03-23T11:22:43;5.20;;;3.92;;
41799;SDS011;27468;47.460;19.034;2024-03-23T11:27:49;5.82;;;4.20;;
41799;SDS011;27468;47.460;19.034;2024-03-23T11:30:16;6.13;;;4.37;;
41799;SDS011;27468;47.460;19.034;2024-03-23T11:32:45;6.63;;;4.20;;
41799;SDS011;27468;47.460;19.034;2024-03-23T11:35:24;6.10;;;4.15;;
41799;SDS011;27468;47.460;19.034;2024-03-23T11:40:52;5.43;;;4.32;;
41799;SDS011;27468;47.460;19.034;2024-03-23T11:43:18;5.30;;;4.10;;
41799;SDS011;27468;47.460;19.034;2024-03-23T11:45:49;5.57;;;4.30;;
41799;SDS011;27468;47.460;19.034;2024-03-23T11:48:20;6.40;;;4.20;;
41799;SDS011;27468;47.460;19.034;2024-03-23T11:50:48;5.95;;;4.18;;
41799;SDS011;27468;47.460;19.034;2024-03-23T11:53:21;6.03;;;3.90;;
41799;SDS011;27468;47.460;19.034;2024-03-23T11:55:58;5.35;;;4.70;;
41799;SDS011;27468;47.460;19.034;2024-03-23T11:58:25;6.88;;;4.30;;
41799;SDS011;27468;47.460;19.034;2024-03-23T12:00:52;5.30;;;4.13;;
41799;SDS011;27468;47.460;19.034;2024-03-23T12:03:21;5.43;;;4.30;;
41799;SDS011;27468;47.460;19.034;2024-03-23T12:05:51;6.13;;;4.10;;
41799;SDS011;27468;47.460;19.034;2024-03-23T12:11:04;5.72;;;3.50;;
41799;SDS011;27468;47.460;19.034;2024-03-23T12:13:34;5.65;;;3.42;;
41799;SDS011;27468;47.460;19.034;2024-03-23T12:18:45;4.78;;;3.10;;
41799;SDS011;27468;47.460;19.034;2024-03-23T12:21:12;5.20;;;3.38;;
41799;SDS011;27468;47.460;19.034;2024-03-23T12:23:41;4.20;;;2.97;;
41799;SDS011;27468;47.460;19.034;2024-03-23T12:26:07;4.50;;;3.47;;
41799;SDS011;27468;47.460;19.034;2024-03-23T12:28:34;4.25;;;2.88;;
41799;SDS011;27468;47.460;19.034;2024-03-23T12:30:59;4.07;;;3.40;;
41799;SDS011;27468;47.460;19.034;2024-03-23T12:33:25;3.53;;;2.90;;
41799;SDS011;27468;47.460;19.034;2024-03-23T12:35:50;3.50;;;2.60;;
41799;SDS011;27468;47.460;19.034;2024-03-23T12:38:16;3.97;;;2.90;;
41799;SDS011;27468;47.460;19.034;2024-03-23T12:40:45;4.60;;;2.80;;
41799;SDS011;27468;47.460;19.034;2024-03-23T12:43:12;4.13;;;2.50;;
41799;SDS011;27468;47.460;19.034;2024-03-23T12:45:38;3.30;;;2.83;;
41799;SDS011;27468;47.460;19.034;2024-03-23T12:48:03;3.90;;;2.60;;
41799;SDS011;27468;47.460;19.034;2024-03-23T12:50:29;4.05;;;2.60;;
41799;SDS011;27468;47.460;19.034;2024-03-23T12:52:54;3.20;;;2.80;;
41799;SDS011;27468;47.460;19.034;2024-03-23T12:55:19;4.00;;;3.00;;
41799;SDS011;27468;47.460;19.034;2024-03-23T12:57:45;3.30;;;2.50;;
41799;SDS011;27468;47.460;19.034;2024-03-23T13:00:11;4.30;;;2.67;;
41799;SDS011;27468;47.460;19.034;2024-03-23T13:02:37;3.42;;;2.40;;
41799;SDS011;27468;47.460;19.034;2024-03-23T13:05:05;3.53;;;2.50;;
41799;SDS011;27468;47.460;19.034;2024-03-23T13:07:33;3.83;;;2.90;;
41799;SDS011;27468;47.460;19.034;2024-03-23T13:09:58;3.95;;;2.67;;
41799;SDS011;27468;47.460;19.034;2024-03-23T13:12:24;3.58;;;2.80;;
41799;SDS011;27468;47.460;19.034;2024-03-23T13:14:49;4.37;;;2.70;;
41799;SDS011;27468;47.460;19.034;2024-03-23T13:17:14;3.70;;;2.60;;
41799;SDS011;27468;47.460;19.034;2024-03-23T13:19:40;4.07;;;2.70;;
41799;SDS011;27468;47.460;19.034;2024-03-23T13:22:07;3.38;;;2.40;;
41799;SDS011;27468;47.460;19.034;2024-03-23T13:24:33;3.80;;;2.60;;
41799;SDS011;27468;47.460;19.034;2024-03-23T13:26:58;4.63;;;2.90;;
41799;SDS011;27468;47.460;19.034;2024-03-23T13:29:24;3.30;;;2.35;;
41799;SDS011;27468;47.460;19.034;2024-03-23T13:31:50;3.13;;;2.30;;
41799;SDS011;27468;47.460;19.034;2024-03-23T13:34:16;3.80;;;2.50;;
41799;SDS011;27468;47.460;19.034;2024-03-23T13:36:46;3.78;;;2.65;;
41799;SDS011;27468;47.460;19.034;2024-03-23T13:39:12;2.70;;;2.50;;
41799;SDS011;27468;47.460;19.034;2024-03-23T13:41:42;3.53;;;2.80;;
41799;SDS011;27468;47.460;19.034;2024-03-23T13:44:09;3.70;;;2.60;;
41799;SDS011;27468;47.460;19.034;2024-03-23T13:46:36;3.08;;;2.60;;
41799;SDS011;27468;47.460;19.034;2024-03-23T13:49:03;4.68;;;2.50;;
41799;SDS011;27468;47.460;19.034;2024-03-23T13:51:28;2.55;;;2.30;;
41799;SDS011;27468;47.460;19.034;2024-03-23T13:53:54;3.47;;;2.67;;
41799;SDS011;27468;47.460;19.034;2024-03-23T13:56:21;3.28;;;2.55;;
41799;SDS011;27468;47.460;19.034;2024-03-23T13:58:50;3.00;;;2.22;;
41799;SDS011;27468;47.460;19.034;2024-03-23T14:01:15;3.43;;;2.47;;
41799;SDS011;27468;47.460;19.034;2024-03-23T14:03:41;3.13;;;2.42;;
41799;SDS011;27468;47.460;19.034;2024-03-23T14:06:08;3.72;;;2.42;;
41799;SDS011;27468;47.460;19.034;2024-03-23T14:08:37;3.28;;;2.53;;
41799;SDS011;27468;47.460;19.034;2024-03-23T14:11:06;4.82;;;2.60;;
41799;SDS011;27468;47.460;19.034;2024-03-23T14:13:32;3.07;;;2.50;;
41799;SDS011;27468;47.460;19.034;2024-03-23T14:15:58;3.30;;;2.40;;
41799;SDS011;27468;47.460;19.034;2024-03-23T14:18:24;3.87;;;2.73;;
41799;SDS011;27468;47.460;19.034;2024-03-23T14:20:50;4.25;;;2.50;;
41799;SDS011;27468;47.460;19.034;2024-03-23T14:23:16;3.83;;;2.63;;
41799;SDS011;27468;47.460;19.034;2024-03-23T14:25:42;3.33;;;2.30;;
41799;SDS011;27468;47.460;19.034;2024-03-23T14:28:07;3.25;;;2.47;;
41799;SDS011;27468;47.460;19.034;2024-03-23T14:30:38;3.75;;;2.45;;
41799;SDS011;27468;47.460;19.034;2024-03-23T14:33:04;4.70;;;2.60;;
41799;SDS011;27468;47.460;19.034;2024-03-23T14:35:29;3.27;;;2.50;;
41799;SDS011;27468;47.460;19.034;2024-03-23T14:37:56;3.72;;;2.80;;
41799;SDS011;27468;47.460;19.034;2024-03-23T14:40:21;3.25;;;2.60;;
41799;SDS011;27468;47.460;19.034;2024-03-23T14:42:46;2.87;;;2.47;;
41799;SDS011;27468;47.460;19.034;2024-03-23T14:45:12;4.43;;;2.80;;
41799;SDS011;27468;47.460;19.034;2024-03-23T14:47:37;3.17;;;2.45;;
41799;SDS011;27468;47.460;19.034;2024-03-23T14:50:02;3.00;;;2.60;;
41799;SDS011;27468;47.460;19.034;2024-03-23T14:52:28;3.30;;;2.40;;
41799;SDS011;27468;47.460;19.034;2024-03-23T14:54:54;4.60;;;2.67;;
41799;SDS011;27468;47.460;19.034;2024-03-23T14:57:21;4.38;;;2.78;;
41799;SDS011;27468;47.460;19.034;2024-03-23T14:59:46;3.28;;;2.95;;
41799;SDS011;27468;47.460;19.034;2024-03-23T15:02:11;3.40;;;3.10;;
41799;SDS011;27468;47.460;19.034;2024-03-23T15:04:38;4.85;;;3.20;;
41799;SDS011;27468;47.460;19.034;2024-03-23T15:07:06;4.00;;;3.15;;
41799;SDS011;27468;47.460;19.034;2024-03-23T15:09:33;4.85;;;3.47;;
41799;SDS011;27468;47.460;19.034;2024-03-23T15:11:58;5.63;;;3.60;;
41799;SDS011;27468;47.460;19.034;2024-03-23T15:14:23;5.00;;;3.50;;
41799;SDS011;27468;47.460;19.034;2024-03-23T15:16:49;4.33;;;3.63;;
41799;SDS011;27468;47.460;19.034;2024-03-23T15:19:15;4.88;;;3.75;;
41799;SDS011;27468;47.460;19.034;2024-03-23T15:21:42;4.85;;;3.47;;
41799;SDS011;27468;47.460;19.034;2024-03-23T15:24:08;5.07;;;4.15;;
41799;SDS011;27468;47.460;19.034;2024-03-23T15:26:35;6.15;;;4.30;;
41799;SDS011;27468;47.460;19.034;2024-03-23T15:29:02;5.25;;;3.80;;